XPA weather

Pama Airport
Pama, Kompienga, Burkina Faso

Public forecast

Using degrees Celsius for public forecast. Weather courtesy of forecast.io.

METAR (pilot weather report)

Report is more than 6 hours old.

Closest report is Fada N'gourma Airport, 51.3 nm (95.0 km) NNW. Retrieved 2009/09/21 17:00 UTC (10 years ago):

DFEF 211700Z 00000KT 9999 FEW0226 TCU BKN260 30/25

TAF (pilot weather forecast)

Forecast is more than 12 hours old.

Closest forecast is Niamtougou International Airport, 92.0 nm (170.3 km) SSE. Retrieved 2019/03/21 00:21 UTC (2 days ago):

TAF DXNG 212300Z 2200/2224 VRB05KT 9999 FEW008 TEMPO 2202/2208 TS BKN008 FEW016CB PROB40 4000 TSRA